torrents rarbg
Catalog Top 10

RARBG
Home
Movies
XXX
TV Shows
Games
Music
Anime
Apps
Doc
Other
Non XXX
Recommended torrents :



»

Cat. File Category Added Size S. L. Uploader
Deadliest.Catch.S18E16.WEB.x264-PHOENiX TV/SD 2022-08-10 09:09:16 545.9 MB 0 0 TGxGoodies
Deadliest.Catch.S18E16.720p.WEB.h264-BAE[TGx] TV/HD 2022-08-10 09:09:16 987.3 MB 0 0 TGxGoodies
Alone.S09.COMPLETE.720p.AMZN.WEBRip.x264-GalaxyTV TV/HD 2022-08-10 09:09:15 13.6 GB 0 0 TGxGoodies
Love.Island.US.S04E20.WEBRip.x264-XEN0N TV/SD 2022-08-10 09:09:15 297 MB 0 0 Saturn5x
Love.Island.US.S04E20.WEB.x264-PHOENiX TV/SD 2022-08-10 08:09:10 514.7 MB 9 3 TGxGoodies
Love.Island.US.S04E20.720p.WEB.h264-KOGi[TGx] TV/HD 2022-08-10 08:09:06 1.5 GB 16 12 TGxGoodies
AwesomenessTV.S02.COMPLETE.720p.AMZN.WEBRip.x264-GalaxyTV TV/HD 2022-08-10 08:09:06 5 GB 5 13 TGxGoodies
The.Sandman.S01.1080p.NF.WEB-DL.H.264.DDPA5.1-FiBERHD TV/HD 2022-08-10 07:08:02 8.5 GB 6 29 DijitulHD
The.Masked.Singer.AU.S04E03.720p.HDTV.x264-ORENJI[TGx] TV/HD 2022-08-10 07:07:57 1.3 GB 12 0 TGxGoodies
Legends of the Hidden Temple (1993) Season 1-3 S01-03 (480p AMZN WEBRIP x265 HEVC 10bit DDP 2.0 EDGE2020) TV/HEVC/x265 2022-08-10 07:07:57 40.4 GB 1 16 EDGE2020
The.Masked.Singer.AU.S04E03.HDTV.x264-FQM[TGx] TV/SD 2022-08-10 07:07:56 527.9 MB 12 2 TGxGoodies
sMothered.S04E01.WEBRip.x264-XEN0N TV/SD 2022-08-10 06:07:51 201.4 MB 5 0 Saturn5x
VICE.S09.COMPLETE.720p.AMZN.WEBRip.x264-GalaxyTV TV/HD 2022-08-10 06:07:46 2.1 GB 21 16 TGxGoodies
I.Just.Killed.My.Dad.S01.COMPLETE.720p.NF.WEBRip.x264-GalaxyTV TV/HD 2022-08-10 05:07:41 840.7 MB 44 17 TGxGoodies
Exhumed.2021.S02E03.WEBRip.x264-PHOENiX TV/SD 2022-08-10 05:07:37 288.7 MB 8 16 TGxGoodies
Snake.in.the.Grass.S01E02.WEBRip.x264-XEN0N TV/SD 2022-08-10 05:07:36 271 MB 7 1 Saturn5x
Exhumed.2021.S02E04.WEBRip.x264-PHOENiX TV/SD 2022-08-10 05:07:36 275.2 MB 15 11 TGxGoodies
Exhumed.2021.S02E05.WEBRip.x264-PHOENiX TV/SD 2022-08-10 05:07:31 265.3 MB 16 13 TGxGoodies
Exhumed.2021.S02E06.WEBRip.x264-PHOENiX TV/SD 2022-08-10 05:07:31 254.9 MB 11 10 TGxGoodies
Exhumed.2021.S02E09.WEBRip.x264-PHOENiX TV/SD 2022-08-10 05:06:27 262.1 MB 11 7 TGxGoodies
Exhumed.2021.S02E08.WEBRip.x264-PHOENiX TV/SD 2022-08-10 05:06:26 305.8 MB 11 8 TGxGoodies
Snake.in.the.Grass.S01E02.WEBRip.x264-PHOENiX TV/SD 2022-08-10 05:06:26 454.7 MB 9 9 TGxGoodies
Exhumed.2021.S02E08.720p.WEBRip.x264-BAE[TGx] TV/HD 2022-08-10 05:06:26 846.6 MB 12 4 TGxGoodies
Exhumed.2021.S02E09.720p.WEBRip.x264-BAE[TGx] TV/HD 2022-08-10 05:06:25 733.2 MB 14 4 TGxGoodies
Exhumed.2021.S02E06.720p.WEBRip.x264-BAE[TGx] TV/HD 2022-08-10 05:06:25 695 MB 11 3 TGxGoodies



By using this site you agree to and accept our user agreement. If you havent read the user agreement please do so here